Current Weather

Kenosha Regional Airport

Kenosha Regional Airport, Wisconsin (KENW)

Report from: Monday, May 23, 2022 1:53 AM CDT
Current time: Monday, May 23, 2022 2:50 AM CDT

Nearby weather
Weather history
Weather forecast

Temperature6.1°C (43.0°F)
Dew point3.9°C (39.0°F)
Winds Calm
Visibility10 mi. (16.1 km)
Clouds Sky clear
Altimeter30.37 in.Hg (1028 mB)
Relative humidity86 %
Density altitude-1,469 ft. (-448 m)
Sea-level pressure102.9 kPa (1029 mB, 30.37 in.Hg)
Remarks Fully automated report
Automated weather observing station with precipitation discriminator
Flight conditions Visual Meteorological Conditions
Raw dataKENW 230653Z AUTO 00000KT 10SM CLR 06/04 A3037 RMK AO2 SLP286 T00610039
An error has occurred. This application may no longer respond until reloaded. Reload 🗙